sensor_id;sensor_type;location;lat;lon;timestamp;pressure;altitude;pressure_sealevel;temperature;humidity
50652;BME280;66928;52.086;5.240;2023-05-01T05:24:32;101407.0;;;11.8;61.35
50652;BME280;66928;52.086;5.240;2023-05-01T05:27:44;101406.0;;;11.77;61.34
50652;BME280;66928;52.086;5.240;2023-05-01T05:29:20;101401.0;;;11.82;61.31
50652;BME280;66928;52.086;5.240;2023-05-01T05:30:56;101405.0;;;11.71;61.35
50652;BME280;66928;52.086;5.240;2023-05-01T05:34:09;101406.0;;;11.67;61.39
50652;BME280;66928;52.086;5.240;2023-05-01T05:35:45;101405.0;;;11.76;61.52
50652;BME280;66928;52.086;5.240;2023-05-01T05:37:21;101406.0;;;11.72;61.56
50652;BME280;66928;52.086;5.240;2023-05-01T05:40:34;101405.0;;;11.7;61.26
50652;BME280;66928;52.086;5.240;2023-05-01T05:42:10;101402.0;;;11.7;61.22
50652;BME280;66928;52.086;5.240;2023-05-01T05:43:46;101403.0;;;11.67;61.52
50652;BME280;66928;52.086;5.240;2023-05-01T05:45:22;101402.0;;;11.65;61.79
50652;BME280;66928;52.086;5.240;2023-05-01T05:48:35;101402.0;;;11.77;61.38
50652;BME280;66928;52.086;5.240;2023-05-01T05:50:11;101405.0;;;11.77;61.7
50652;BME280;66928;52.086;5.240;2023-05-01T05:51:47;101399.0;;;11.9;61.24
50652;BME280;66928;52.086;5.240;2023-05-01T05:55:00;101399.0;;;12.0;60.94
50652;BME280;66928;52.086;5.240;2023-05-01T05:56:36;101396.0;;;11.78;61.37
50652;BME280;66928;52.086;5.240;2023-05-01T05:58:13;101395.0;;;11.77;61.64
50652;BME280;66928;52.086;5.240;2023-05-01T06:01:26;101395.0;;;11.73;61.55
50652;BME280;66928;52.086;5.240;2023-05-01T06:03:02;101394.0;;;11.54;62.45
50652;BME280;66928;52.086;5.240;2023-05-01T06:04:38;101391.0;;;11.5;62.58
50652;BME280;66928;52.086;5.240;2023-05-01T06:06:14;101389.0;;;11.61;62.31
50652;BME280;66928;52.086;5.240;2023-05-01T06:09:27;101393.0;;;11.44;62.77
50652;BME280;66928;52.086;5.240;2023-05-01T06:11:03;101394.0;;;11.45;62.84
50652;BME280;66928;52.086;5.240;2023-05-01T06:12:39;101388.0;;;11.6;62.77
50652;BME280;66928;52.086;5.240;2023-05-01T06:15:51;101392.0;;;11.76;62.22
50652;BME280;66928;52.086;5.240;2023-05-01T06:17:27;101396.0;;;11.86;61.97
50652;BME280;66928;52.086;5.240;2023-05-01T06:19:03;101388.0;;;11.87;62.06
50652;BME280;66928;52.086;5.240;2023-05-01T06:22:15;101394.0;;;12.02;61.24
50652;BME280;66928;52.086;5.240;2023-05-01T06:23:51;101385.0;;;11.93;61.61
50652;BME280;66928;52.086;5.240;2023-05-01T06:25:27;101383.0;;;12.14;61.22
50652;BME280;66928;52.086;5.240;2023-05-01T06:28:40;101386.0;;;11.96;61.64
50652;BME280;66928;52.086;5.240;2023-05-01T06:30:16;101383.0;;;11.91;61.95
50652;BME280;66928;52.086;5.240;2023-05-01T06:31:52;101386.0;;;12.1;61.37
50652;BME280;66928;52.086;5.240;2023-05-01T06:33:28;101385.0;;;12.13;61.45
50652;BME280;66928;52.086;5.240;2023-05-01T06:36:41;101381.0;;;12.29;60.41
50652;BME280;66928;52.086;5.240;2023-05-01T06:38:17;101381.0;;;12.32;60.59
50652;BME280;66928;52.086;5.240;2023-05-01T06:39:54;101388.0;;;12.18;61.07
50652;BME280;66928;52.086;5.240;2023-05-01T06:43:06;101378.0;;;12.35;60.71
50652;BME280;66928;52.086;5.240;2023-05-01T06:44:42;101378.0;;;12.48;60.37
50652;BME280;66928;52.086;5.240;2023-05-01T06:46:18;101376.0;;;12.55;60.13
50652;BME280;66928;52.086;5.240;2023-05-01T06:49:30;101378.0;;;12.62;60.0
50652;BME280;66928;52.086;5.240;2023-05-01T06:51:06;101381.0;;;12.27;61.0
50652;BME280;66928;52.086;5.240;2023-05-01T06:52:43;101378.0;;;12.5;60.87
50652;BME280;66928;52.086;5.240;2023-05-01T06:55:55;101377.0;;;12.69;60.14
50652;BME280;66928;52.086;5.240;2023-05-01T06:57:31;101373.0;;;12.55;60.38
50652;BME280;66928;52.086;5.240;2023-05-01T06:59:07;101374.0;;;12.63;60.32
50652;BME280;66928;52.086;5.240;2023-05-01T07:00:44;101375.0;;;12.69;59.88
50652;BME280;66928;52.086;5.240;2023-05-01T07:03:56;101375.0;;;12.74;60.1
50652;BME280;66928;52.086;5.240;2023-05-01T07:05:33;101375.0;;;12.87;59.6
50652;BME280;66928;52.086;5.240;2023-05-01T07:07:09;101381.0;;;12.9;59.65
50652;BME280;66928;52.086;5.240;2023-05-01T07:10:21;101381.0;;;13.13;59.18
50652;BME280;66928;52.086;5.240;2023-05-01T07:11:57;101380.0;;;13.36;58.84
50652;BME280;66928;52.086;5.240;2023-05-01T07:13:33;101377.0;;;13.39;58.2
50652;BME280;66928;52.086;5.240;2023-05-01T07:16:45;101375.0;;;13.44;57.97
50652;BME280;66928;52.086;5.240;2023-05-01T07:18:22;101378.0;;;13.56;57.66
50652;BME280;66928;52.086;5.240;2023-05-01T07:19:58;101380.0;;;13.46;57.89
50652;BME280;66928;52.086;5.240;2023-05-01T07:21:34;101378.0;;;13.68;57.45
50652;BME280;66928;52.086;5.240;2023-05-01T07:24:46;101373.0;;;13.69;57.29
50652;BME280;66928;52.086;5.240;2023-05-01T07:26:24;101380.0;;;13.85;57.39
50652;BME280;66928;52.086;5.240;2023-05-01T07:28:01;101375.0;;;13.69;57.68
50652;BME280;66928;52.086;5.240;2023-05-01T07:31:14;101376.0;;;13.9;57.31
50652;BME280;66928;52.086;5.240;2023-05-01T07:32:50;101382.0;;;13.98;57.07
50652;BME280;66928;52.086;5.240;2023-05-01T07:34:26;101381.0;;;14.07;56.96
50652;BME280;66928;52.086;5.240;2023-05-01T07:37:39;101385.0;;;14.1;56.81
50652;BME280;66928;52.086;5.240;2023-05-01T07:39:15;101385.0;;;14.18;56.61
50652;BME280;66928;52.086;5.240;2023-05-01T07:40:52;101382.0;;;14.12;56.72
50652;BME280;66928;52.086;5.240;2023-05-01T07:42:28;101381.0;;;14.12;56.65
50652;BME280;66928;52.086;5.240;2023-05-01T07:45:40;101384.0;;;14.1;56.55
50652;BME280;66928;52.086;5.240;2023-05-01T07:47:16;101384.0;;;14.23;55.92
50652;BME280;66928;52.086;5.240;2023-05-01T07:48:52;101385.0;;;14.26;55.99
50652;BME280;66928;52.086;5.240;2023-05-01T07:52:06;101383.0;;;14.24;55.69
50652;BME280;66928;52.086;5.240;2023-05-01T07:53:41;101376.0;;;14.3;55.41
50652;BME280;66928;52.086;5.240;2023-05-01T07:55:20;101375.0;;;14.43;55.06
50652;BME280;66928;52.086;5.240;2023-05-01T07:58:33;101374.0;;;14.4;55.21
50652;BME280;66928;52.086;5.240;2023-05-01T08:00:11;101378.0;;;14.37;55.12
50652;BME280;66928;52.086;5.240;2023-05-01T08:01:47;101376.0;;;14.17;55.79
50652;BME280;66928;52.086;5.240;2023-05-01T08:03:23;101383.0;;;14.29;55.88
50652;BME280;66928;52.086;5.240;2023-05-01T08:06:35;101380.0;;;14.26;55.98
50652;BME280;66928;52.086;5.240;2023-05-01T08:08:11;101382.0;;;14.31;56.28
50652;BME280;66928;52.086;5.240;2023-05-01T08:09:48;101386.0;;;14.33;56.44
50652;BME280;66928;52.086;5.240;2023-05-01T08:13:01;101388.0;;;14.41;56.13
50652;BME280;66928;52.086;5.240;2023-05-01T08:14:37;101385.0;;;14.54;55.16
50652;BME280;66928;52.086;5.240;2023-05-01T08:16:13;101386.0;;;14.5;55.09
50652;BME280;66928;52.086;5.240;2023-05-01T08:19:25;101378.0;;;14.5;55.01
50652;BME280;66928;52.086;5.240;2023-05-01T08:21:02;101380.0;;;14.59;55.35
50652;BME280;66928;52.086;5.240;2023-05-01T08:22:37;101383.0;;;14.77;54.73
50652;BME280;66928;52.086;5.240;2023-05-01T08:25:50;101377.0;;;14.78;54.84
50652;BME280;66928;52.086;5.240;2023-05-01T08:27:27;101380.0;;;14.89;54.54
50652;BME280;66928;52.086;5.240;2023-05-01T08:29:03;101382.0;;;14.86;53.85
50652;BME280;66928;52.086;5.240;2023-05-01T08:30:39;101380.0;;;15.04;53.72
50652;BME280;66928;52.086;5.240;2023-05-01T08:33:53;101384.0;;;14.96;53.67
50652;BME280;66928;52.086;5.240;2023-05-01T08:35:29;101381.0;;;15.08;53.34
50652;BME280;66928;52.086;5.240;2023-05-01T08:37:06;101384.0;;;14.88;54.38
50652;BME280;66928;52.086;5.240;2023-05-01T08:40:18;101386.0;;;14.93;54.55
50652;BME280;66928;52.086;5.240;2023-05-01T08:41:54;101386.0;;;14.92;54.87
50652;BME280;66928;52.086;5.240;2023-05-01T08:43:30;101386.0;;;15.01;54.39
50652;BME280;66928;52.086;5.240;2023-05-01T08:46:46;101387.0;;;14.98;54.77
50652;BME280;66928;52.086;5.240;2023-05-01T08:48:24;101381.0;;;15.13;54.03
50652;BME280;66928;52.086;5.240;2023-05-01T08:50:02;101384.0;;;15.03;53.65
50652;BME280;66928;52.086;5.240;2023-05-01T08:51:40;101374.0;;;15.15;53.78
50652;BME280;66928;52.086;5.240;2023-05-01T08:54:58;101378.0;;;15.27;53.46
50652;BME280;66928;52.086;5.240;2023-05-01T08:56:36;101374.0;;;15.27;53.2
50652;BME280;66928;52.086;5.240;2023-05-01T08:58:16;101376.0;;;15.33;53.26
50652;BME280;66928;52.086;5.240;2023-05-01T08:59:54;101378.0;;;15.34;52.78
50652;BME280;66928;52.086;5.240;2023-05-01T09:03:10;101375.0;;;15.26;52.95
50652;BME280;66928;52.086;5.240;2023-05-01T09:04:48;101377.0;;;15.25;52.66
50652;BME280;66928;52.086;5.240;2023-05-01T09:06:27;101378.0;;;15.29;52.57
50652;BME280;66928;52.086;5.240;2023-05-01T09:11:19;101386.0;;;15.52;52.28
50652;BME280;66928;52.086;5.240;2023-05-01T09:12:59;101388.0;;;15.39;51.89
50652;BME280;66928;52.086;5.240;2023-05-01T09:14:36;101387.0;;;15.67;51.47
50652;BME280;66928;52.086;5.240;2023-05-01T09:17:50;101387.0;;;15.71;51.32
50652;BME280;66928;52.086;5.240;2023-05-01T09:19:26;101388.0;;;15.8;51.12
50652;BME280;66928;52.086;5.240;2023-05-01T09:21:02;101390.0;;;15.83;50.95
50652;BME280;66928;52.086;5.240;2023-05-01T09:24:16;101388.0;;;15.8;51.49
50652;BME280;66928;52.086;5.240;2023-05-01T09:25:52;101385.0;;;15.82;51.29
50652;BME280;66928;52.086;5.240;2023-05-01T09:27:32;101388.0;;;15.92;51.31
50652;BME280;66928;52.086;5.240;2023-05-01T09:29:09;101388.0;;;16.21;50.68
50652;BME280;66928;52.086;5.240;2023-05-01T09:32:23;101384.0;;;16.22;50.65
50652;BME280;66928;52.086;5.240;2023-05-01T09:34:01;101391.0;;;16.38;50.26
50652;BME280;66928;52.086;5.240;2023-05-01T09:35:55;101392.0;;;16.43;49.88
50652;BME280;66928;52.086;5.240;2023-05-01T09:37:33;101390.0;;;16.48;50.07
50652;BME280;66928;52.086;5.240;2023-05-01T09:41:03;101391.0;;;16.52;49.61
50652;BME280;66928;52.086;5.240;2023-05-01T09:42:48;101388.0;;;16.77;47.98
50652;BME280;66928;52.086;5.240;2023-05-01T09:44:24;101387.0;;;16.77;48.42
50652;BME280;66928;52.086;5.240;2023-05-01T09:46:02;101386.0;;;16.93;47.73
50652;BME280;66928;52.086;5.240;2023-05-01T09:49:16;101387.0;;;16.95;47.4
50652;BME280;66928;52.086;5.240;2023-05-01T09:50:52;101390.0;;;16.95;47.15
50652;BME280;66928;52.086;5.240;2023-05-01T09:52:29;101389.0;;;17.02;46.81
50652;BME280;66928;52.086;5.240;2023-05-01T09:55:59;101385.0;;;16.82;45.85
50652;BME280;66928;52.086;5.240;2023-05-01T09:57:35;101390.0;;;16.75;45.17
50652;BME280;66928;52.086;5.240;2023-05-01T09:59:15;101384.0;;;16.7;45.89
50652;BME280;66928;52.086;5.240;2023-05-01T10:00:53;101388.0;;;16.68;45.02
50652;BME280;66928;52.086;5.240;2023-05-01T10:04:05;101389.0;;;16.7;44.71
50652;BME280;66928;52.086;5.240;2023-05-01T10:05:42;101391.0;;;16.77;44.54
50652;BME280;66928;52.086;5.240;2023-05-01T10:07:19;101389.0;;;16.78;44.43
50652;BME280;66928;52.086;5.240;2023-05-01T10:08:55;101391.0;;;16.84;44.56
50652;BME280;66928;52.086;5.240;2023-05-01T10:12:07;101396.0;;;16.93;44.44
50652;BME280;66928;52.086;5.240;2023-05-01T10:13:44;101394.0;;;17.18;44.47
50652;BME280;66928;52.086;5.240;2023-05-01T10:15:20;101397.0;;;17.23;43.26
50652;BME280;66928;52.086;5.240;2023-05-01T10:18:33;101397.0;;;17.18;42.18
50652;BME280;66928;52.086;5.240;2023-05-01T10:20:11;101399.0;;;17.39;41.72
50652;BME280;66928;52.086;5.240;2023-05-01T10:21:47;101403.0;;;17.56;41.28
50652;BME280;66928;52.086;5.240;2023-05-01T10:25:01;101405.0;;;17.47;41.33
50652;BME280;66928;52.086;5.240;2023-05-01T10:28:19;101411.0;;;17.43;41.91
50652;BME280;66928;52.086;5.240;2023-05-01T10:29:56;101409.0;;;17.54;42.28
50652;BME280;66928;52.086;5.240;2023-05-01T10:33:11;101408.0;;;17.56;42.64
50652;BME280;66928;52.086;5.240;2023-05-01T10:34:53;101411.0;;;17.77;42.52
50652;BME280;66928;52.086;5.240;2023-05-01T10:36:35;101412.0;;;17.66;42.29
50652;BME280;66928;52.086;5.240;2023-05-01T10:38:21;101411.0;;;17.25;42.82
50652;BME280;66928;52.086;5.240;2023-05-01T10:42:07;101414.0;;;17.05;42.97
50652;BME280;66928;52.086;5.240;2023-05-01T10:45:28;101423.0;;;17.16;42.51
50652;BME280;66928;52.086;5.240;2023-05-01T10:48:09;101425.0;;;17.16;46.13
50652;BME280;66928;52.086;5.240;2023-05-01T10:50:03;101423.0;;;17.28;47.83
50652;BME280;66928;52.086;5.240;2023-05-01T10:51:57;101423.0;;;17.0;48.96
50652;BME280;66928;52.086;5.240;2023-05-01T10:53:34;101428.0;;;16.59;50.09
50652;BME280;66928;52.086;5.240;2023-05-01T10:55:43;101427.0;;;16.52;50.2
50652;BME280;66928;52.086;5.240;2023-05-01T10:57:40;101428.0;;;16.72;50.05
50652;BME280;66928;52.086;5.240;2023-05-01T10:59:17;101427.0;;;16.3;51.04
50652;BME280;66928;52.086;5.240;2023-05-01T11:03:33;101424.0;;;16.34;51.17
50652;BME280;66928;52.086;5.240;2023-05-01T11:05:12;101426.0;;;16.23;51.29
50652;BME280;66928;52.086;5.240;2023-05-01T11:07:13;101426.0;;;16.46;50.79
50652;BME280;66928;52.086;5.240;2023-05-01T11:08:50;101427.0;;;16.22;51.42
50652;BME280;66928;52.086;5.240;2023-05-01T11:10:26;101424.0;;;16.57;50.32
50652;BME280;66928;52.086;5.240;2023-05-01T11:12:02;101428.0;;;16.5;50.03
50652;BME280;66928;52.086;5.240;2023-05-01T11:15:32;101426.0;;;16.27;50.32
50652;BME280;66928;52.086;5.240;2023-05-01T11:17:09;101430.0;;;16.64;49.68
50652;BME280;66928;52.086;5.240;2023-05-01T11:18:45;101427.0;;;16.13;50.49
50652;BME280;66928;52.086;5.240;2023-05-01T11:20:53;101430.0;;;16.41;50.47
50652;BME280;66928;52.086;5.240;2023-05-01T11:22:30;101430.0;;;16.7;50.41
50652;BME280;66928;52.086;5.240;2023-05-01T11:25:46;101425.0;;;16.68;50.81
50652;BME280;66928;52.086;5.240;2023-05-01T11:27:22;101424.0;;;16.95;50.78
50652;BME280;66928;52.086;5.240;2023-05-01T11:29:00;101424.0;;;16.86;52.21
50652;BME280;66928;52.086;5.240;2023-05-01T11:30:37;101430.0;;;16.71;52.67
50652;BME280;66928;52.086;5.240;2023-05-01T11:33:55;101426.0;;;16.57;53.29
50652;BME280;66928;52.086;5.240;2023-05-01T11:35:32;101430.0;;;16.65;53.77
50652;BME280;66928;52.086;5.240;2023-05-01T11:37:08;101425.0;;;16.52;54.24
50652;BME280;66928;52.086;5.240;2023-05-01T11:42:07;101428.0;;;16.53;54.34
50652;BME280;66928;52.086;5.240;2023-05-01T11:43:49;101425.0;;;16.57;55.04
50652;BME280;66928;52.086;5.240;2023-05-01T11:45:24;101433.0;;;16.59;54.55
50652;BME280;66928;52.086;5.240;2023-05-01T11:48:37;101430.0;;;16.57;54.37
50652;BME280;66928;52.086;5.240;2023-05-01T11:50:13;101431.0;;;16.54;54.18
50652;BME280;66928;52.086;5.240;2023-05-01T11:51:55;101447.0;;;16.27;54.41
50652;BME280;66928;52.086;5.240;2023-05-01T11:53:31;101442.0;;;16.18;54.49
50652;BME280;66928;52.086;5.240;2023-05-01T11:56:44;101443.0;;;15.64;57.02
50652;BME280;66928;52.086;5.240;2023-05-01T11:58:36;101442.0;;;15.64;57.14
50652;BME280;66928;52.086;5.240;2023-05-01T12:00:13;101446.0;;;15.59;57.2
50652;BME280;66928;52.086;5.240;2023-05-01T12:01:51;101452.0;;;15.89;56.82
50652;BME280;66928;52.086;5.240;2023-05-01T12:05:18;101455.0;;;15.38;57.86
50652;BME280;66928;52.086;5.240;2023-05-01T12:06:55;101444.0;;;15.39;58.19
50652;BME280;66928;52.086;5.240;2023-05-01T12:08:31;101448.0;;;15.32;57.88
50652;BME280;66928;52.086;5.240;2023-05-01T12:11:45;101445.0;;;15.52;57.59
50652;BME280;66928;52.086;5.240;2023-05-01T12:13:23;101453.0;;;15.2;57.27
50652;BME280;66928;52.086;5.240;2023-05-01T12:15:00;101448.0;;;15.24;57.71
50652;BME280;66928;52.086;5.240;2023-05-01T12:16:37;101450.0;;;15.49;57.44
50652;BME280;66928;52.086;5.240;2023-05-01T12:19:51;101452.0;;;15.32;57.45
50652;BME280;66928;52.086;5.240;2023-05-01T12:21:27;101451.0;;;15.16;58.35
50652;BME280;66928;52.086;5.240;2023-05-01T12:23:04;101450.0;;;14.98;59.61
50652;BME280;66928;52.086;5.240;2023-05-01T12:26:26;101452.0;;;15.16;60.24
50652;BME280;66928;52.086;5.240;2023-05-01T12:28:07;101453.0;;;15.08;61.78
50652;BME280;66928;52.086;5.240;2023-05-01T12:29:43;101455.0;;;14.9;62.23
50652;BME280;66928;52.086;5.240;2023-05-01T12:31:21;101449.0;;;15.25;62.41
50652;BME280;66928;52.086;5.240;2023-05-01T12:34:34;101451.0;;;15.27;62.14
50652;BME280;66928;52.086;5.240;2023-05-01T12:36:11;101455.0;;;15.23;62.28
50652;BME280;66928;52.086;5.240;2023-05-01T12:37:47;101442.0;;;14.95;62.85
50652;BME280;66928;52.086;5.240;2023-05-01T12:41:00;101442.0;;;15.25;62.95
50652;BME280;66928;52.086;5.240;2023-05-01T12:42:36;101442.0;;;15.29;64.66
50652;BME280;66928;52.086;5.240;2023-05-01T12:44:17;101440.0;;;15.37;63.33
50652;BME280;66928;52.086;5.240;2023-05-01T12:45:57;101439.0;;;15.65;63.06
50652;BME280;66928;52.086;5.240;2023-05-01T12:49:15;101438.0;;;15.57;62.99
50652;BME280;66928;52.086;5.240;2023-05-01T12:50:52;101436.0;;;15.57;62.3
50652;BME280;66928;52.086;5.240;2023-05-01T12:52:29;101435.0;;;15.6;63.45
50652;BME280;66928;52.086;5.240;2023-05-01T12:55:46;101439.0;;;15.37;62.78
50652;BME280;66928;52.086;5.240;2023-05-01T12:57:22;101442.0;;;15.32;64.77
50652;BME280;66928;52.086;5.240;2023-05-01T12:58:58;101443.0;;;15.33;64.24
50652;BME280;66928;52.086;5.240;2023-05-01T13:00:41;101439.0;;;15.72;63.0
50652;BME280;66928;52.086;5.240;2023-05-01T13:03:55;101439.0;;;15.3;64.8
50652;BME280;66928;52.086;5.240;2023-05-01T13:05:31;101437.0;;;15.66;64.02
50652;BME280;66928;52.086;5.240;2023-05-01T13:07:11;101439.0;;;15.87;63.84
50652;BME280;66928;52.086;5.240;2023-05-01T13:10:28;101437.0;;;15.68;63.41
50652;BME280;66928;52.086;5.240;2023-05-01T13:12:05;101438.0;;;15.4;64.28
50652;BME280;66928;52.086;5.240;2023-05-01T13:13:43;101435.0;;;15.56;64.66
50652;BME280;66928;52.086;5.240;2023-05-01T13:15:20;101436.0;;;15.53;64.64
50652;BME280;66928;52.086;5.240;2023-05-01T13:18:33;101440.0;;;15.33;64.05
50652;BME280;66928;52.086;5.240;2023-05-01T13:20:24;101438.0;;;15.31;65.16
50652;BME280;66928;52.086;5.240;2023-05-01T13:22:04;101441.0;;;15.39;64.91
50652;BME280;66928;52.086;5.240;2023-05-01T13:23:41;101441.0;;;15.19;65.95
50652;BME280;66928;52.086;5.240;2023-05-01T13:27:03;101441.0;;;15.06;65.91
50652;BME280;66928;52.086;5.240;2023-05-01T13:28:41;101436.0;;;15.25;65.77
50652;BME280;66928;52.086;5.240;2023-05-01T13:30:20;101437.0;;;15.38;65.78
50652;BME280;66928;52.086;5.240;2023-05-01T13:32:09;101442.0;;;15.37;64.35
50652;BME280;66928;52.086;5.240;2023-05-01T13:35:30;101441.0;;;15.36;64.22
50652;BME280;66928;52.086;5.240;2023-05-01T13:37:09;101442.0;;;15.16;64.52
50652;BME280;66928;52.086;5.240;2023-05-01T13:38:47;101440.0;;;15.22;64.33
50652;BME280;66928;52.086;5.240;2023-05-01T13:40:25;101441.0;;;15.16;65.05
50652;BME280;66928;52.086;5.240;2023-05-01T13:43:41;101443.0;;;15.41;64.19
50652;BME280;66928;52.086;5.240;2023-05-01T13:45:17;101438.0;;;15.62;63.21
50652;BME280;66928;52.086;5.240;2023-05-01T13:46:55;101438.0;;;15.58;63.04
50652;BME280;66928;52.086;5.240;2023-05-01T13:50:08;101440.0;;;16.0;62.09
50652;BME280;66928;52.086;5.240;2023-05-01T13:51:44;101439.0;;;15.98;60.53
50652;BME280;66928;52.086;5.240;2023-05-01T13:53:20;101438.0;;;16.15;60.74
50652;BME280;66928;52.086;5.240;2023-05-01T13:54:56;101436.0;;;16.21;59.88
50652;BME280;66928;52.086;5.240;2023-05-01T13:58:10;101435.0;;;16.36;60.04
50652;BME280;66928;52.086;5.240;2023-05-01T13:59:46;101433.0;;;16.55;59.15
50652;BME280;66928;52.086;5.240;2023-05-01T14:01:22;101433.0;;;16.61;58.3
50652;BME280;66928;52.086;5.240;2023-05-01T14:04:34;101435.0;;;16.75;57.57
50652;BME280;66928;52.086;5.240;2023-05-01T14:06:12;101433.0;;;16.93;57.01
50652;BME280;66928;52.086;5.240;2023-05-01T14:07:54;101432.0;;;16.88;56.7
50652;BME280;66928;52.086;5.240;2023-05-01T14:09:34;101434.0;;;16.81;55.97
50652;BME280;66928;52.086;5.240;2023-05-01T14:12:47;101426.0;;;17.04;55.53
50652;BME280;66928;52.086;5.240;2023-05-01T14:14:23;101425.0;;;17.16;54.33
50652;BME280;66928;52.086;5.240;2023-05-01T14:15:59;101425.0;;;17.34;54.3
50652;BME280;66928;52.086;5.240;2023-05-01T14:19:14;101423.0;;;17.37;54.15
50652;BME280;66928;52.086;5.240;2023-05-01T14:20:50;101427.0;;;17.2;52.99
50652;BME280;66928;52.086;5.240;2023-05-01T14:22:28;101425.0;;;17.28;52.68
50652;BME280;66928;52.086;5.240;2023-05-01T14:25:43;101420.0;;;17.2;52.6
50652;BME280;66928;52.086;5.240;2023-05-01T14:28:58;101422.0;;;17.25;52.61
50652;BME280;66928;52.086;5.240;2023-05-01T14:30:35;101436.0;;;17.12;52.62
50652;BME280;66928;52.086;5.240;2023-05-01T14:33:51;101417.0;;;17.02;51.25
50652;BME280;66928;52.086;5.240;2023-05-01T14:35:32;101422.0;;;16.79;52.63
50652;BME280;66928;52.086;5.240;2023-05-01T14:37:09;101419.0;;;16.84;52.79
50652;BME280;66928;52.086;5.240;2023-05-01T14:38:46;101423.0;;;16.65;52.45
50652;BME280;66928;52.086;5.240;2023-05-01T14:42:03;101417.0;;;16.71;52.77
50652;BME280;66928;52.086;5.240;2023-05-01T14:43:40;101413.0;;;16.68;53.68
50652;BME280;66928;52.086;5.240;2023-05-01T14:45:18;101417.0;;;16.84;53.25
50652;BME280;66928;52.086;5.240;2023-05-01T14:48:34;101420.0;;;16.79;52.46
50652;BME280;66928;52.086;5.240;2023-05-01T14:50:11;101418.0;;;16.75;51.86
50652;BME280;66928;52.086;5.240;2023-05-01T14:51:52;101418.0;;;17.2;50.9
50652;BME280;66928;52.086;5.240;2023-05-01T14:53:31;101420.0;;;17.2;50.68
50652;BME280;66928;52.086;5.240;2023-05-01T14:56:47;101420.0;;;17.09;50.05
50652;BME280;66928;52.086;5.240;2023-05-01T14:58:23;101420.0;;;17.21;50.06
50652;BME280;66928;52.086;5.240;2023-05-01T14:59:59;101435.0;;;17.25;50.17
50652;BME280;66928;52.086;5.240;2023-05-01T15:03:12;101430.0;;;17.16;50.67
50652;BME280;66928;52.086;5.240;2023-05-01T15:04:48;101437.0;;;17.18;51.23
50652;BME280;66928;52.086;5.240;2023-05-01T15:06:24;101433.0;;;17.28;50.64
50652;BME280;66928;52.086;5.240;2023-05-01T15:09:40;101435.0;;;17.13;51.4
50652;BME280;66928;52.086;5.240;2023-05-01T15:11:16;101426.0;;;17.0;51.87
50652;BME280;66928;52.086;5.240;2023-05-01T15:12:53;101422.0;;;17.27;51.37
50652;BME280;66928;52.086;5.240;2023-05-01T15:14:29;101431.0;;;17.25;51.21
50652;BME280;66928;52.086;5.240;2023-05-01T15:17:41;101430.0;;;17.11;50.82
50652;BME280;66928;52.086;5.240;2023-05-01T15:19:17;101430.0;;;17.02;51.92
50652;BME280;66928;52.086;5.240;2023-05-01T15:20:53;101431.0;;;16.75;52.36
50652;BME280;66928;52.086;5.240;2023-05-01T15:24:06;101424.0;;;17.16;51.73
50652;BME280;66928;52.086;5.240;2023-05-01T15:25:43;101438.0;;;17.31;52.11
50652;BME280;66928;52.086;5.240;2023-05-01T15:27:19;101430.0;;;17.14;52.89
50652;BME280;66928;52.086;5.240;2023-05-01T15:30:31;101428.0;;;17.2;53.3
50652;BME280;66928;52.086;5.240;2023-05-01T15:32:07;101430.0;;;17.62;51.88
50652;BME280;66928;52.086;5.240;2023-05-01T15:33:43;101430.0;;;17.71;51.25
50652;BME280;66928;52.086;5.240;2023-05-01T15:35:20;101448.0;;;17.23;52.56
50652;BME280;66928;52.086;5.240;2023-05-01T15:38:33;101442.0;;;17.21;52.99
50652;BME280;66928;52.086;5.240;2023-05-01T15:40:09;101439.0;;;17.36;53.03
50652;BME280;66928;52.086;5.240;2023-05-01T15:41:45;101443.0;;;17.25;53.36
50652;BME280;66928;52.086;5.240;2023-05-01T15:44:57;101441.0;;;17.13;53.83
50652;BME280;66928;52.086;5.240;2023-05-01T15:46:33;101456.0;;;16.97;54.62
50652;BME280;66928;52.086;5.240;2023-05-01T15:48:09;101455.0;;;16.78;54.84
50652;BME280;66928;52.086;5.240;2023-05-01T15:51:22;101450.0;;;16.97;54.98
50652;BME280;66928;52.086;5.240;2023-05-01T15:52:58;101453.0;;;16.75;55.34
50652;BME280;66928;52.086;5.240;2023-05-01T15:54:34;101456.0;;;16.93;54.76
50652;BME280;66928;52.086;5.240;2023-05-01T15:56:10;101460.0;;;17.14;54.38
50652;BME280;66928;52.086;5.240;2023-05-01T15:59:23;101461.0;;;17.02;54.15
50652;BME280;66928;52.086;5.240;2023-05-01T16:00:59;101471.0;;;16.84;54.02
50652;BME280;66928;52.086;5.240;2023-05-01T16:02:36;101463.0;;;16.71;54.75
50652;BME280;66928;52.086;5.240;2023-05-01T16:05:48;101469.0;;;16.86;54.61
50652;BME280;66928;52.086;5.240;2023-05-01T16:07:24;101470.0;;;16.73;54.93
50652;BME280;66928;52.086;5.240;2023-05-01T16:09:03;101469.0;;;16.9;54.64
50652;BME280;66928;52.086;5.240;2023-05-01T16:12:15;101467.0;;;16.77;55.11
50652;BME280;66928;52.086;5.240;2023-05-01T16:13:51;101469.0;;;16.8;54.99
50652;BME280;66928;52.086;5.240;2023-05-01T16:15:29;101480.0;;;16.84;54.97
50652;BME280;66928;52.086;5.240;2023-05-01T16:17:05;101481.0;;;16.66;55.57
50652;BME280;66928;52.086;5.240;2023-05-01T16:20:17;101475.0;;;16.62;55.54
50652;BME280;66928;52.086;5.240;2023-05-01T16:21:54;101475.0;;;17.0;55.0
50652;BME280;66928;52.086;5.240;2023-05-01T16:23:30;101472.0;;;17.16;54.53
50652;BME280;66928;52.086;5.240;2023-05-01T16:26:45;101474.0;;;17.09;54.78
50652;BME280;66928;52.086;5.240;2023-05-01T16:28:21;101472.0;;;17.2;54.95
50652;BME280;66928;52.086;5.240;2023-05-01T16:29:59;101470.0;;;17.29;55.36
50652;BME280;66928;52.086;5.240;2023-05-01T16:33:16;101494.0;;;17.25;55.4
50652;BME280;66928;52.086;5.240;2023-05-01T16:34:52;101505.0;;;16.84;56.91
50652;BME280;66928;52.086;5.240;2023-05-01T16:36:29;101489.0;;;16.68;57.98
50652;BME280;66928;52.086;5.240;2023-05-01T16:38:04;101515.0;;;16.23;59.63
50652;BME280;66928;52.086;5.240;2023-05-01T16:41:17;101491.0;;;16.28;60.06